createdAt,value
2019-02-21T00:01:30.656Z,4.61
2019-02-21T00:03:57.073Z,4.70
2019-02-21T00:06:23.513Z,4.74
2019-02-21T00:08:49.952Z,4.71
2019-02-21T00:11:16.369Z,4.86
2019-02-21T00:13:42.799Z,4.86
2019-02-21T00:16:09.240Z,4.86
2019-02-21T00:18:35.667Z,4.78
2019-02-21T00:21:02.088Z,4.67
2019-02-21T00:23:28.548Z,4.58
2019-02-21T00:25:55.874Z,4.54
2019-02-21T00:28:22.534Z,4.54
2019-02-21T00:30:48.963Z,4.60
2019-02-21T00:33:18.426Z,4.40
2019-02-21T00:35:44.922Z,4.32
2019-02-21T00:38:11.354Z,4.32
2019-02-21T00:40:37.774Z,4.04
2019-02-21T00:43:04.196Z,4.09
2019-02-21T00:45:30.630Z,4.05
2019-02-21T00:47:57.043Z,4.21
2019-02-21T00:50:23.471Z,4.19
2019-02-21T00:52:49.903Z,4.04
2019-02-21T00:55:16.386Z,4.06
2019-02-21T00:57:42.819Z,4.09
2019-02-21T01:00:11.447Z,4.14
2019-02-21T01:02:37.922Z,4.11
2019-02-21T01:05:04.827Z,4.23
2019-02-21T01:07:31.384Z,4.15
2019-02-21T01:09:58.047Z,4.09
2019-02-21T01:12:24.776Z,4.21
2019-02-21T01:14:51.234Z,4.34
2019-02-21T01:17:17.658Z,4.50
2019-02-21T01:19:44.069Z,4.23
2019-02-21T01:22:10.498Z,4.16
2019-02-21T01:24:37.076Z,4.09
2019-02-21T01:27:03.568Z,4.16
2019-02-21T01:29:30.400Z,4.39
2019-02-21T01:31:56.834Z,4.12
2019-02-21T01:34:23.256Z,4.22
2019-02-21T01:36:49.681Z,4.11
2019-02-21T01:39:16.097Z,4.07
2019-02-21T01:41:42.536Z,4.12
2019-02-21T01:44:08.955Z,4.04
2019-02-21T01:46:35.385Z,3.89
2019-02-21T01:49:01.812Z,3.87
2019-02-21T01:51:28.242Z,3.81
2019-02-21T01:53:54.673Z,3.76
2019-02-21T01:56:21.113Z,3.84
2019-02-21T01:58:47.535Z,3.74
2019-02-21T02:01:14.238Z,3.70
2019-02-21T02:03:40.658Z,3.72
2019-02-21T02:06:07.178Z,3.79
2019-02-21T02:08:33.583Z,3.67
2019-02-21T02:11:00.011Z,3.74
2019-02-21T02:13:26.442Z,3.76
2019-02-21T02:15:52.893Z,3.77
2019-02-21T02:18:19.322Z,3.69
2019-02-21T02:20:45.741Z,3.77
2019-02-21T02:23:12.303Z,3.84
2019-02-21T02:25:38.855Z,3.85
2019-02-21T02:28:05.269Z,3.82
2019-02-21T02:30:31.738Z,3.77
2019-02-21T02:32:58.386Z,3.79
2019-02-21T02:35:24.870Z,3.81
2019-02-21T02:37:51.295Z,3.92
2019-02-21T02:40:17.732Z,3.87
2019-02-21T02:42:44.245Z,3.78
2019-02-21T02:45:10.813Z,4.04
2019-02-21T02:47:37.238Z,3.96
2019-02-21T02:50:05.773Z,3.81
2019-02-21T02:52:32.207Z,3.87
2019-02-21T02:54:58.703Z,3.78
2019-02-21T02:57:25.131Z,3.83
2019-02-21T02:59:51.578Z,4.03
2019-02-21T03:02:17.985Z,3.86
2019-02-21T03:04:44.516Z,3.97
2019-02-21T03:07:10.939Z,3.82
2019-02-21T03:09:37.345Z,3.58
2019-02-21T03:12:03.770Z,3.51
2019-02-21T03:14:30.269Z,3.48
2019-02-21T03:16:56.704Z,3.44
2019-02-21T03:19:23.136Z,3.41
2019-02-21T03:21:49.579Z,3.37
2019-02-21T03:24:16.356Z,3.48
2019-02-21T03:26:42.855Z,3.53
2019-02-21T03:29:09.470Z,3.51
2019-02-21T03:31:52.616Z,3.48
2019-02-21T03:34:04.345Z,3.52
2019-02-21T03:36:30.836Z,3.77
2019-02-21T03:38:57.265Z,3.74
2019-02-21T03:41:23.685Z,3.63
2019-02-21T03:43:50.113Z,3.70
2019-02-21T03:46:16.562Z,3.45
2019-02-21T03:48:42.984Z,3.31
2019-02-21T03:51:09.416Z,3.25
2019-02-21T03:53:36.047Z,3.33
2019-02-21T03:56:02.606Z,3.21
2019-02-21T03:58:29.030Z,3.16
2019-02-21T04:00:55.566Z,3.22
2019-02-21T04:03:22.001Z,3.28
2019-02-21T04:05:48.487Z,3.13
2019-02-21T04:08:14.921Z,3.18
2019-02-21T04:10:41.344Z,3.19
2019-02-21T04:13:07.775Z,3.22
2019-02-21T04:15:37.919Z,3.38
2019-02-21T04:18:04.337Z,3.45
2019-02-21T04:20:30.773Z,3.50
2019-02-21T04:22:58.047Z,3.58
2019-02-21T04:25:24.579Z,3.48
2019-02-21T04:27:51.081Z,3.55
2019-02-21T04:30:17.773Z,3.55
2019-02-21T04:32:48.119Z,3.27
2019-02-21T04:35:19.578Z,3.32
2019-02-21T04:37:46.073Z,3.40
2019-02-21T04:40:12.502Z,3.26
2019-02-21T04:42:42.827Z,3.16
2019-02-21T04:45:13.648Z,3.15
2019-02-21T04:47:40.088Z,3.05
2019-02-21T04:50:06.536Z,3.10
2019-02-21T04:52:38.177Z,3.18
2019-02-21T04:55:05.957Z,3.40
2019-02-21T04:57:32.384Z,3.26
2019-02-21T05:00:00.680Z,3.19
2019-02-21T05:02:32.783Z,3.32
2019-02-21T05:04:59.939Z,3.24
2019-02-21T05:07:26.494Z,3.23
2019-02-21T05:09:58.102Z,3.21
2019-02-21T05:12:28.572Z,3.03
2019-02-21T05:14:55.079Z,2.88
2019-02-21T05:17:21.574Z,2.75
2019-02-21T05:19:47.996Z,2.81
2019-02-21T05:22:14.427Z,2.92
2019-02-21T05:24:41.227Z,2.89
2019-02-21T05:27:12.296Z,2.98
2019-02-21T05:29:38.723Z,3.04
2019-02-21T05:35:46.795Z,2.85
2019-02-21T05:38:15.022Z,2.89
2019-02-21T05:40:43.339Z,2.96
2019-02-21T05:43:26.845Z,2.83
2019-02-21T05:45:57.757Z,2.83
2019-02-21T05:48:25.988Z,3.12
2019-02-21T05:51:00.209Z,2.83
2019-02-21T05:53:37.433Z,2.69
2019-02-21T05:56:11.485Z,2.66
2019-02-21T05:58:45.983Z,2.51
2019-02-21T06:01:17.259Z,2.57
2019-02-21T06:03:45.484Z,2.60
2019-02-21T06:06:30.577Z,2.57
2019-02-21T06:08:58.831Z,2.56
2019-02-21T06:11:35.073Z,2.62
2019-02-21T06:14:12.494Z,2.77
2019-02-21T06:16:46.699Z,2.82
2019-02-21T06:19:27.335Z,2.76
2019-02-21T06:22:10.499Z,2.62
2019-02-21T06:24:46.868Z,2.51
2019-02-21T06:27:15.238Z,2.54
2019-02-21T06:29:46.602Z,2.49
2019-02-21T06:32:14.545Z,2.49
2019-02-21T06:34:41.387Z,2.57
2019-02-21T06:37:07.809Z,2.77
2019-02-21T06:39:34.308Z,2.70
2019-02-21T06:42:00.839Z,2.87
2019-02-21T06:44:27.274Z,2.87
2019-02-21T06:46:53.713Z,2.75
2019-02-21T06:49:20.157Z,2.75
2019-02-21T06:51:46.571Z,2.58
2019-02-21T06:54:13.003Z,2.77
2019-02-21T06:56:39.615Z,2.58
2019-02-21T06:59:06.065Z,2.61
2019-02-21T07:01:32.488Z,2.48
2019-02-21T07:03:58.915Z,2.48
2019-02-21T07:06:31.878Z,2.52
2019-02-21T07:08:54.286Z,2.58
2019-02-21T07:11:20.814Z,2.69
2019-02-21T07:13:47.276Z,2.71
2019-02-21T07:16:13.758Z,2.75
2019-02-21T07:18:40.935Z,2.75
2019-02-21T07:21:07.634Z,2.78
2019-02-21T07:23:43.077Z,2.86
2019-02-21T07:26:03.314Z,3.14
2019-02-21T07:28:29.814Z,3.12
2019-02-21T07:30:56.247Z,3.27
2019-02-21T07:33:28.465Z,3.71
2019-02-21T07:35:51.134Z,3.64
2019-02-21T07:38:17.655Z,3.68
2019-02-21T07:40:44.100Z,3.59
2019-02-21T07:43:12.692Z,3.28
2019-02-21T07:45:38.981Z,3.43
2019-02-21T07:48:05.422Z,3.64
2019-02-21T07:50:31.843Z,3.51
2019-02-21T07:53:02.405Z,3.50
2019-02-21T07:55:26.627Z,3.21
2019-02-21T07:57:53.067Z,2.38
2019-02-21T08:00:19.593Z,2.66
2019-02-21T08:02:46.017Z,2.69
2019-02-21T08:05:12.456Z,2.69
2019-02-21T08:07:38.889Z,3.06
2019-02-21T08:10:08.223Z,2.72
2019-02-21T08:12:34.652Z,3.08
2019-02-21T08:15:01.097Z,3.19
2019-02-21T08:17:28.042Z,3.26
2019-02-21T08:19:54.609Z,3.53
2019-02-21T08:22:21.039Z,3.54
2019-02-21T08:24:47.574Z,3.70
2019-02-21T08:27:14.090Z,3.89
2019-02-21T08:29:40.520Z,4.06
2019-02-21T08:32:07.048Z,4.21
2019-02-21T08:34:35.536Z,4.25
2019-02-21T08:37:01.960Z,4.38
2019-02-21T08:39:28.384Z,4.51
2019-02-21T08:41:55.288Z,4.60
2019-02-21T08:44:24.949Z,4.72
2019-02-21T08:46:53.419Z,4.82
2019-02-21T08:49:19.744Z,4.95
2019-02-21T08:51:46.259Z,4.97
2019-02-21T08:54:12.683Z,5.01
2019-02-21T08:56:39.126Z,5.00
2019-02-21T08:59:05.546Z,5.17
2019-02-21T09:01:31.970Z,5.22
2019-02-21T09:04:09.598Z,5.33
2019-02-21T09:06:26.912Z,5.44
2019-02-21T09:08:53.328Z,5.51
2019-02-21T09:11:19.924Z,5.66
2019-02-21T09:13:46.366Z,5.68
2019-02-21T09:16:30.298Z,5.73
2019-02-21T09:29:31.593Z,5.99
2019-02-21T09:31:58.088Z,6.14
2019-02-21T09:34:24.558Z,6.05
2019-02-21T09:36:51.017Z,6.15
2019-02-21T09:39:17.454Z,6.12
2019-02-21T09:41:43.872Z,6.20
2019-02-21T09:47:36.626Z,6.38
2019-02-21T09:50:04.673Z,6.34
2019-02-21T09:52:31.130Z,6.44
2019-02-21T09:55:07.156Z,6.57
2019-02-21T09:57:45.479Z,6.69
2019-02-21T10:00:44.760Z,6.67
2019-02-21T10:03:11.790Z,6.83
2019-02-21T10:05:38.370Z,6.84
2019-02-21T10:08:21.910Z,6.94
2019-02-21T10:11:21.272Z,7.09
2019-02-21T10:13:48.574Z,7.10
2019-02-21T10:16:15.481Z,7.16
2019-02-21T10:18:42.355Z,7.17
2019-02-21T11:02:01.850Z,8.82
2019-02-21T11:04:28.284Z,9.02
2019-02-21T11:06:54.692Z,9.19
2019-02-21T11:09:21.313Z,9.05
2019-02-21T11:11:47.739Z,9.19
2019-02-21T11:14:14.162Z,9.29
2019-02-21T11:16:40.630Z,9.37
2019-02-21T11:19:07.075Z,9.33
2019-02-21T11:21:33.584Z,9.63
2019-02-21T11:23:59.999Z,9.81
2019-02-21T11:54:56.587Z,10.92
2019-02-21T11:57:23.057Z,10.74
2019-02-21T11:59:49.572Z,10.59
2019-02-21T12:02:16.013Z,10.74
2019-02-21T12:04:42.504Z,10.74
2019-02-21T12:07:08.936Z,11.04
2019-02-21T12:09:35.371Z,11.17
2019-02-21T12:12:01.788Z,11.29
2019-02-21T12:14:28.238Z,11.25
2019-02-21T12:16:54.672Z,11.50
2019-02-21T12:19:21.305Z,11.46
2019-02-21T12:21:58.406Z,11.29
2019-02-21T12:24:16.072Z,11.65
2019-02-21T12:26:42.557Z,11.79
2019-02-21T12:29:08.974Z,11.65
2019-02-21T12:31:35.437Z,11.90
2019-02-21T12:34:01.867Z,12.10
2019-02-21T12:36:28.407Z,12.00
2019-02-21T12:38:54.917Z,12.50
2019-02-21T12:41:21.351Z,12.24
2019-02-21T12:43:47.769Z,12.09
2019-02-21T12:46:14.359Z,12.25
2019-02-21T12:48:40.778Z,12.41
2019-02-21T12:51:07.213Z,12.25
2019-02-21T12:53:33.883Z,12.36
2019-02-21T12:56:00.374Z,12.69
2019-02-21T12:58:26.793Z,12.83
2019-02-21T13:00:55.482Z,12.81
2019-02-21T13:03:28.502Z,12.77
2019-02-21T13:09:38.398Z,13.07
2019-02-21T13:12:04.888Z,12.98
2019-02-21T13:14:31.323Z,13.22
2019-02-21T13:17:17.046Z,13.11
2019-02-21T13:19:43.242Z,13.56
2019-02-21T13:22:09.663Z,13.50
2019-02-21T13:24:36.095Z,13.48
2019-02-21T13:27:02.518Z,13.42
2019-02-21T13:29:28.933Z,13.50
2019-02-21T13:31:55.374Z,13.78
2019-02-21T13:34:22.091Z,13.90
2019-02-21T13:36:48.592Z,13.93
2019-02-21T13:39:15.190Z,14.40
2019-02-21T13:41:41.608Z,14.73
2019-02-21T13:44:08.111Z,15.29
2019-02-21T13:46:37.918Z,15.32
2019-02-21T13:49:03.047Z,15.19
2019-02-21T13:51:29.468Z,15.72
2019-02-21T13:53:55.907Z,16.15
2019-02-21T13:56:22.405Z,16.16
2019-02-21T13:58:48.828Z,16.03
2019-02-21T14:01:15.256Z,15.88
2019-02-21T14:03:41.679Z,16.13
2019-02-21T14:06:08.137Z,16.63
2019-02-21T14:08:34.558Z,17.16
2019-02-21T14:11:00.982Z,17.54
2019-02-21T14:13:27.405Z,16.98
2019-02-21T14:15:53.877Z,17.08
2019-02-21T14:18:20.327Z,17.04
2019-02-21T14:20:46.822Z,16.94
2019-02-21T14:23:13.237Z,16.82
2019-02-21T14:25:41.086Z,17.40
2019-02-21T14:28:07.738Z,16.74
2019-02-21T14:30:34.171Z,16.87
2019-02-21T14:33:00.651Z,17.15
2019-02-21T14:35:27.642Z,16.57
2019-02-21T14:37:54.172Z,17.63
2019-02-21T14:40:20.834Z,18.08
2019-02-21T14:42:47.254Z,17.58
2019-02-21T14:45:18.775Z,17.97
2019-02-21T14:47:45.223Z,18.00
2019-02-21T14:50:11.828Z,18.15
2019-02-21T14:52:38.347Z,18.48
2019-02-21T14:55:10.359Z,17.67
2019-02-21T14:57:40.868Z,17.88
2019-02-21T15:00:08.927Z,17.71
2019-02-21T15:02:35.369Z,17.52
2019-02-21T15:05:04.756Z,17.62
2019-02-21T15:07:31.256Z,18.55
2019-02-21T15:09:57.688Z,17.91
2019-02-21T15:12:24.123Z,18.51
2019-02-21T15:14:50.597Z,18.86
2019-02-21T15:17:18.580Z,19.28
2019-02-21T15:19:45.236Z,19.23
2019-02-21T15:22:13.678Z,18.98
2019-02-21T15:24:40.018Z,19.49
2019-02-21T15:27:08.799Z,19.52
2019-02-21T15:29:34.762Z,19.50
2019-02-21T15:32:10.648Z,19.92
2019-02-21T15:34:29.539Z,19.49
2019-02-21T15:36:55.958Z,19.93
2019-02-21T15:39:22.433Z,20.02
2019-02-21T15:41:48.896Z,18.29
2019-02-21T15:44:15.329Z,18.19
2019-02-21T15:46:41.811Z,17.51
2019-02-21T15:49:08.293Z,17.72
2019-02-21T15:51:34.758Z,17.51
2019-02-21T15:54:01.189Z,17.35
2019-02-21T15:56:27.822Z,17.26
2019-02-21T15:58:54.236Z,16.93
2019-02-21T16:01:20.650Z,17.01
2019-02-21T16:03:47.116Z,17.33
2019-02-21T16:06:13.710Z,18.19
2019-02-21T16:08:40.138Z,17.23
2019-02-21T16:11:06.617Z,17.77
2019-02-21T16:13:33.212Z,17.64
2019-02-21T16:15:59.929Z,17.39
2019-02-21T16:18:26.346Z,17.10
2019-02-21T16:20:53.151Z,16.61
2019-02-21T16:23:19.702Z,16.07
2019-02-21T16:25:46.281Z,16.50
2019-02-21T16:28:12.707Z,15.64
2019-02-21T16:30:39.148Z,16.14
2019-02-21T16:33:05.628Z,15.36
2019-02-21T16:35:32.118Z,15.29
2019-02-21T16:37:58.537Z,14.93
2019-02-21T16:40:24.976Z,14.53
2019-02-21T16:42:51.564Z,14.07
2019-02-21T16:45:19.367Z,14.55
2019-02-21T16:47:45.796Z,14.50
2019-02-21T16:50:13.317Z,14.37
2019-02-21T16:52:39.748Z,14.28
2019-02-21T16:55:09.352Z,14.24
2019-02-21T16:57:35.773Z,14.41
2019-02-21T17:00:02.993Z,14.42
2019-02-21T17:02:29.512Z,14.12
2019-02-21T17:04:56.223Z,14.09
2019-02-21T17:07:22.643Z,13.87
2019-02-21T17:09:49.076Z,13.65
2019-02-21T17:12:15.633Z,13.66
2019-02-21T17:14:42.274Z,13.62
2019-02-21T17:17:08.697Z,13.29
2019-02-21T17:19:35.115Z,13.07
2019-02-21T17:22:01.544Z,12.96
2019-02-21T17:24:28.085Z,12.85
2019-02-21T17:26:54.514Z,12.72
2019-02-21T17:29:20.944Z,12.25
2019-02-21T17:31:47.377Z,12.07
2019-02-21T17:34:13.811Z,12.21
2019-02-21T17:36:40.347Z,12.19
2019-02-21T17:39:06.781Z,11.95
2019-02-21T17:41:33.196Z,11.96
2019-02-21T17:44:00.196Z,11.95
2019-02-21T17:46:26.681Z,11.69
2019-02-21T17:48:53.113Z,11.39
2019-02-21T17:51:19.584Z,11.40
2019-02-21T17:53:45.996Z,11.27
2019-02-21T17:56:12.514Z,11.36
2019-02-21T17:58:38.932Z,11.15
2019-02-21T18:48:57.486Z,10.33
2019-02-21T18:51:24.018Z,10.25
2019-02-21T18:53:50.491Z,10.31
2019-02-21T18:56:17.034Z,10.42
2019-02-21T18:58:43.470Z,10.36
2019-02-21T19:01:10.002Z,10.38
2019-02-21T19:03:36.437Z,10.35
2019-02-21T19:06:03.181Z,10.47
2019-02-21T19:08:29.638Z,10.42
2019-02-21T19:10:56.070Z,10.35
2019-02-21T19:13:22.502Z,10.42
2019-02-21T19:15:49.017Z,10.28
2019-02-21T19:18:15.583Z,10.19
2019-02-21T19:20:42.017Z,10.02
2019-02-21T19:23:08.570Z,8.96
2019-02-21T19:25:35.161Z,8.71
2019-02-21T19:28:01.718Z,9.16
2019-02-21T19:30:37.491Z,8.88
2019-02-21T19:33:04.129Z,7.73
2019-02-21T19:35:30.729Z,7.09
2019-02-21T19:37:57.363Z,7.09
2019-02-21T19:40:23.904Z,7.84
2019-02-21T19:42:50.336Z,7.75
2019-02-21T19:45:17.268Z,7.69
2019-02-21T19:47:43.848Z,7.71
2019-02-21T19:50:10.549Z,7.53
2019-02-21T19:52:36.971Z,7.53
2019-02-21T19:55:05.228Z,7.58
2019-02-21T19:57:31.852Z,7.64
2019-02-21T19:59:58.376Z,7.54
2019-02-21T20:02:24.800Z,7.41
2019-02-21T20:04:51.336Z,7.27
2019-02-21T20:07:17.942Z,7.58
2019-02-21T20:09:44.567Z,7.68
2019-02-21T20:12:11.126Z,7.67
2019-02-21T20:14:37.654Z,7.69
2019-02-21T20:17:04.290Z,7.65
2019-02-21T20:19:30.762Z,7.81
2019-02-21T20:21:57.220Z,7.52
2019-02-21T20:24:24.761Z,7.37
2019-02-21T20:26:51.296Z,7.27
2019-02-21T20:29:17.717Z,7.13
2019-02-21T20:31:44.139Z,7.28
2019-02-21T20:34:12.841Z,7.31
2019-02-21T20:36:39.140Z,7.40
2019-02-21T20:39:05.689Z,7.30
2019-02-21T20:41:32.083Z,7.15
2019-02-21T20:43:58.501Z,6.72
2019-02-21T20:46:24.979Z,6.88
2019-02-21T20:48:51.446Z,7.04
2019-02-21T20:51:17.869Z,7.11
2019-02-21T20:53:44.483Z,7.11
2019-02-21T20:56:11.020Z,7.19
2019-02-21T20:58:37.551Z,6.87
2019-02-21T21:01:05.884Z,6.95
2019-02-21T21:03:32.312Z,6.97
2019-02-21T21:05:58.831Z,6.69
2019-02-21T21:08:25.343Z,6.70
2019-02-21T21:10:51.772Z,6.93
2019-02-21T21:13:18.195Z,7.01
2019-02-21T21:15:44.658Z,7.47
2019-02-21T21:18:11.083Z,7.17
2019-02-21T21:20:37.509Z,7.04
2019-02-21T21:23:03.931Z,7.24
2019-02-21T21:25:31.972Z,6.98
2019-02-21T21:27:58.553Z,6.77
2019-02-21T21:30:25.108Z,6.47
2019-02-21T21:32:51.530Z,6.56
2019-02-21T21:35:18.052Z,6.49
2019-02-21T21:37:44.631Z,6.56
2019-02-21T21:40:16.382Z,6.73
2019-02-21T21:42:42.978Z,6.82
2019-02-21T21:45:14.786Z,6.94
2019-02-21T21:47:41.206Z,6.91
2019-02-21T21:50:10.779Z,6.81
2019-02-21T21:52:37.202Z,6.90
2019-02-21T21:55:04.213Z,6.99
2019-02-21T21:57:30.637Z,6.77
2019-02-21T21:59:57.062Z,6.75
2019-02-21T22:02:23.605Z,6.56
2019-02-21T22:04:50.134Z,6.48
2019-02-21T22:07:16.635Z,6.46
2019-02-21T22:09:43.063Z,6.40
2019-02-21T22:12:09.487Z,6.30
2019-02-21T22:14:35.940Z,6.30
2019-02-21T22:17:02.363Z,6.32
2019-02-21T22:19:28.785Z,6.47
2019-02-21T22:21:55.219Z,6.12
2019-02-21T22:24:21.658Z,6.48
2019-02-21T22:26:48.123Z,6.28
2019-02-21T22:29:14.555Z,6.43
2019-02-21T22:31:40.973Z,6.69
2019-02-21T22:34:07.397Z,6.93
2019-02-21T22:36:33.854Z,6.79
2019-02-21T22:39:02.045Z,6.54
2019-02-21T22:41:28.635Z,6.68
2019-02-21T22:43:55.068Z,6.56
2019-02-21T22:46:21.534Z,6.39
2019-02-21T22:48:48.052Z,5.99
2019-02-21T22:51:14.480Z,5.90
2019-02-21T22:53:40.895Z,6.01
2019-02-21T22:56:07.516Z,5.93
2019-02-21T22:58:44.518Z,5.96
2019-02-21T23:01:23.239Z,5.96
2019-02-21T23:03:52.864Z,5.89
2019-02-21T23:06:35.311Z,6.06
2019-02-21T23:09:01.908Z,5.89
2019-02-21T23:11:28.343Z,5.90
2019-02-21T23:13:55.666Z,5.83
2019-02-21T23:16:22.145Z,5.81
2019-02-21T23:18:48.575Z,5.78
2019-02-21T23:21:15.102Z,5.92
2019-02-21T23:23:42.030Z,5.63
2019-02-21T23:26:08.499Z,5.67
2019-02-21T23:28:34.962Z,5.78
2019-02-21T23:31:01.392Z,5.67
2019-02-21T23:33:28.823Z,5.62
2019-02-21T23:35:55.354Z,5.58
2019-02-21T23:38:21.774Z,5.43
2019-02-21T23:40:48.194Z,5.41
2019-02-21T23:43:14.720Z,5.37
2019-02-21T23:45:41.194Z,5.35
2019-02-21T23:48:07.634Z,5.36
2019-02-21T23:50:34.094Z,5.46
2019-02-21T23:53:00.515Z,5.57
2019-02-21T23:55:27.029Z,5.58
2019-02-21T23:57:53.510Z,5.48
